Time;durP1;ratioP1;P1;durP2;ratioP2;P2;SDS_P1;SDS_P2;PMS_P1;PMS_P2;Temp;Humidity;BMP_temperature;BMP_pressure;BME280_temperature;BME280_humidity;BME280_pressure;Samples;Min_cycle;Max_cycle;Signal;HPM_P1;HPM_P2
2022/07/20 00:00:06;;;;;;;7.75;4.85;;;28.00;53.00;;;;;;5056155;28;20116;-59
2022/07/20 00:02:31;;;;;;;8.93;5.57;;;28.00;53.10;;;;;;5056306;28;20029;-59
2022/07/20 00:04:57;;;;;;;7.90;4.43;;;28.00;53.00;;;;;;5057025;28;20066;-60
2022/07/20 00:07:22;;;;;;;9.75;5.03;;;28.00;53.10;;;;;;5057777;28;20108;-60
2022/07/20 00:12:32;;;;;;;9.55;4.78;;;28.00;53.20;;;;;;5058764;28;20113;-60
2022/07/20 00:14:58;;;;;;;7.57;4.63;;;27.90;53.50;;;;;;5057649;28;20486;-60
2022/07/20 00:17:23;;;;;;;10.43;4.50;;;27.90;53.60;;;;;;5055567;28;20115;-60
2022/07/20 00:19:49;;;;;;;6.78;4.38;;;27.80;53.80;;;;;;5055610;28;20033;-60
2022/07/20 00:22:14;;;;;;;8.57;4.72;;;27.70;54.10;;;;;;5055579;28;20032;-60
2022/07/20 00:24:40;;;;;;;6.15;4.10;;;27.60;54.30;;;;;;5055401;28;20032;-60
2022/07/20 00:27:06;;;;;;;11.18;5.60;;;27.60;54.60;;;;;;5055969;28;20475;-58
2022/07/20 00:29:31;;;;;;;5.95;4.28;;;27.50;54.80;;;;;;5055461;28;20024;-60
2022/07/20 00:31:57;;;;;;;7.95;4.85;;;27.40;54.90;;;;;;5055319;28;20025;-60
2022/07/20 00:34:22;;;;;;;11.18;4.90;;;27.30;55.00;;;;;;5055550;28;20374;-60
2022/07/20 00:36:48;;;;;;;7.13;4.60;;;27.30;55.00;;;;;;5055259;28;20029;-59
2022/07/20 00:39:13;;;;;;;12.05;4.40;;;27.30;55.10;;;;;;5055176;28;20025;-60
2022/07/20 00:41:39;;;;;;;7.68;4.55;;;27.30;55.10;;;;;;5054975;28;20075;-61
2022/07/20 00:44:07;;;;;;;6.68;4.78;;;27.20;55.20;;;;;;5054918;28;20029;-59
2022/07/20 00:46:35;;;;;;;9.65;4.50;;;27.20;55.10;;;;;;5055244;28;20028;-61
2022/07/20 00:49:01;;;;;;;6.45;4.55;;;27.20;55.20;;;;;;5054912;28;20025;-61
2022/07/20 00:51:28;;;;;;;9.20;4.68;;;27.10;55.30;;;;;;5054966;28;20028;-61
2022/07/20 00:53:54;;;;;;;9.43;4.65;;;27.20;55.40;;;;;;5055357;28;20025;-60
2022/07/20 00:56:20;;;;;;;7.10;4.88;;;27.10;55.50;;;;;;5053782;28;20441;-60
2022/07/20 00:58:46;;;;;;;7.47;4.72;;;27.10;56.10;;;;;;5055231;28;20441;-60
2022/07/20 01:01:13;;;;;;;5.63;4.72;;;27.10;55.40;;;;;;5055105;28;20492;-60
2022/07/20 01:03:39;;;;;;;9.77;4.93;;;27.10;55.50;;;;;;5053504;28;20029;-60
2022/07/20 01:06:05;;;;;;;8.38;4.85;;;27.00;55.40;;;;;;5053392;28;20021;-60
2022/07/20 01:08:31;;;;;;;7.13;4.72;;;27.00;55.50;;;;;;5054451;28;20022;-60
2022/07/20 01:10:57;;;;;;;7.97;4.82;;;27.00;55.60;;;;;;5054319;28;20029;-60
2022/07/20 01:13:23;;;;;;;11.13;5.32;;;27.00;55.80;;;;;;5054406;28;20017;-60
2022/07/20 01:15:49;;;;;;;9.10;5.00;;;26.90;56.00;;;;;;5054285;28;20432;-60
2022/07/20 01:18:15;;;;;;;6.68;4.88;;;26.80;56.30;;;;;;5054424;28;20025;-59
2022/07/20 01:20:49;;;;;;;;;;;26.80;56.50;;;;;;5054807;28;20108;-58
2022/07/20 01:23:15;;;;;;;9.25;4.70;;;26.70;56.50;;;;;;5054115;28;19955;-59
2022/07/20 01:25:41;;;;;;;9.80;4.78;;;26.60;56.70;;;;;;5054069;28;20366;-57
2022/07/20 01:28:08;;;;;;;10.02;5.03;;;26.50;56.80;;;;;;5053955;28;20021;-59
2022/07/20 01:30:34;;;;;;;5.90;4.90;;;26.50;56.90;;;;;;5054177;28;20449;-60
2022/07/20 01:32:59;;;;;;;;;;;26.40;56.90;;;;;;5054486;28;20033;-55
2022/07/20 01:35:25;;;;;;;8.88;4.78;;;26.40;57.20;;;;;;5054486;28;20281;-66
2022/07/20 01:37:50;;;;;;;;;;;26.30;57.40;;;;;;5054689;28;20135;-66
2022/07/20 01:40:16;;;;;;;6.32;5.18;;;26.20;57.40;;;;;;5052452;28;19905;-65
2022/07/20 01:42:41;;;;;;;10.23;5.15;;;26.20;57.60;;;;;;5053994;28;20029;-65
2022/07/20 01:45:07;;;;;;;13.27;5.43;;;26.10;57.60;;;;;;5053736;28;20104;-65
2022/07/20 01:47:33;;;;;;;;;;;26.10;57.60;;;;;;5054136;28;20478;-65
2022/07/20 01:49:58;;;;;;;7.13;4.60;;;26.10;57.70;;;;;;5053451;28;20077;-65
2022/07/20 01:52:24;;;;;;;7.40;4.88;;;26.10;58.40;;;;;;5053649;28;20029;-65
2022/07/20 01:54:49;;;;;;;8.75;5.00;;;26.10;57.80;;;;;;5053837;28;20109;-65
2022/07/20 01:57:15;;;;;;;;;;;26.10;57.80;;;;;;5053931;28;20036;-65
2022/07/20 01:59:40;;;;;;;6.32;4.93;;;26.00;57.80;;;;;;5053398;28;19909;-65
2022/07/20 02:02:06;;;;;;;10.52;5.25;;;26.00;57.90;;;;;;5053512;28;20470;-65
2022/07/20 02:04:32;;;;;;;7.63;4.50;;;26.00;57.90;;;;;;5053254;28;20033;-65
2022/07/20 02:06:57;;;;;;;;;;;26.00;58.10;;;;;;5053709;28;20025;-65
2022/07/20 02:09:23;;;;;;;7.65;5.50;;;25.90;58.10;;;;;;5053766;28;19905;-65
2022/07/20 02:11:48;;;;;;;;;;;25.90;58.20;;;;;;5053770;28;20470;-63
2022/07/20 02:14:14;;;;;;;10.07;4.93;;;25.90;58.30;;;;;;5053370;28;19905;-65
2022/07/20 02:16:40;;;;;;;7.32;4.50;;;25.90;58.40;;;;;;5053386;28;20060;-65
2022/07/20 02:19:05;;;;;;;9.38;4.82;;;25.90;58.50;;;;;;5053123;28;20486;-65
2022/07/20 02:21:31;;;;;;;6.85;4.68;;;25.90;58.80;;;;;;5053022;28;20047;-64
2022/07/20 02:23:57;;;;;;;8.57;4.82;;;25.80;58.40;;;;;;5051661;28;20021;-65
2022/07/20 02:26:23;;;;;;;7.40;4.53;;;25.80;58.70;;;;;;5053076;28;20053;-65
2022/07/20 02:28:49;;;;;;;6.65;4.85;;;25.80;58.80;;;;;;5051691;28;20021;-65
2022/07/20 02:31:18;;;;;;;10.07;5.20;;;25.70;59.00;;;;;;5053385;28;20044;-65
2022/07/20 02:33:44;;;;;;;10.20;4.60;;;25.70;59.20;;;;;;5052986;28;20130;-65
2022/07/20 02:36:09;;;;;;;;;;;25.60;59.40;;;;;;5053363;28;20048;-65
2022/07/20 02:38:35;;;;;;;8.57;5.13;;;25.60;59.70;;;;;;5053176;28;20349;-65
2022/07/20 02:41:01;;;;;;;;;;;25.50;59.70;;;;;;5053320;28;20041;-65
2022/07/20 02:43:26;;;;;;;5.68;4.40;;;25.50;59.80;;;;;;5052745;28;19918;-66
2022/07/20 02:45:51;;;;;;;;;;;25.50;60.50;;;;;;5053382;28;20481;-65
2022/07/20 02:48:17;;;;;;;7.28;4.82;;;25.40;60.00;;;;;;5053034;28;20279;-66
2022/07/20 02:50:43;;;;;;;;;;;25.40;60.00;;;;;;5056419;28;20033;-66
2022/07/20 02:53:09;;;;;;;8.65;4.45;;;25.40;60.50;;;;;;5053127;28;20007;-65
2022/07/20 02:55:36;;;;;;;8.82;5.15;;;25.30;60.40;;;;;;5052859;28;20505;-65
2022/07/20 02:58:02;;;;;;;6.00;4.80;;;25.30;60.50;;;;;;5052949;28;20029;-66
2022/07/20 03:00:28;;;;;;;8.43;4.45;;;25.30;60.60;;;;;;5054948;28;20029;-66
2022/07/20 03:02:54;;;;;;;;;;;25.20;60.50;;;;;;5057350;28;20070;-65
2022/07/20 03:05:19;;;;;;;6.68;4.47;;;25.20;60.30;;;;;;5057111;28;19958;-65
2022/07/20 03:07:45;;;;;;;9.95;5.25;;;25.20;60.40;;;;;;5057237;28;20023;-66
2022/07/20 03:10:11;;;;;;;9.60;4.88;;;25.20;60.50;;;;;;5056875;28;20025;-66
2022/07/20 03:12:37;;;;;;;;;;;25.20;60.70;;;;;;5057151;28;20031;-65
2022/07/20 03:15:04;;;;;;;9.40;4.80;;;25.10;60.80;;;;;;5056646;28;19939;-64
2022/07/20 03:17:30;;;;;;;10.95;5.30;;;25.10;61.10;;;;;;5056795;28;20036;-65
2022/07/20 03:19:56;;;;;;;;;;;25.10;61.00;;;;;;5056870;28;20029;-65
2022/07/20 03:22:21;;;;;;;7.90;5.10;;;25.00;61.00;;;;;;5056298;28;19912;-64
2022/07/20 03:24:46;;;;;;;;;;;25.00;61.30;;;;;;5056844;28;20116;-65
2022/07/20 03:27:12;;;;;;;11.57;4.70;;;25.00;61.50;;;;;;5056440;28;19948;-65
2022/07/20 03:29:38;;;;;;;;;;;24.90;61.50;;;;;;5055460;28;20028;-65
2022/07/20 03:32:04;;;;;;;8.02;5.05;;;24.90;61.80;;;;;;5056270;28;20231;-65
2022/07/20 03:34:30;;;;;;;8.45;5.22;;;24.90;62.00;;;;;;5056740;28;20466;-65
2022/07/20 03:36:55;;;;;;;;;;;24.80;61.90;;;;;;5056617;28;20044;-65
2022/07/20 03:39:21;;;;;;;7.40;4.53;;;24.80;62.10;;;;;;5056059;28;19909;-65
2022/07/20 03:41:47;;;;;;;;;;;24.80;62.50;;;;;;5056401;28;20025;-65
2022/07/20 03:44:12;;;;;;;6.95;4.93;;;24.70;62.60;;;;;;5054517;28;19904;-65
2022/07/20 03:46:38;;;;;;;;;;;24.70;62.40;;;;;;5056431;28;20035;-65
2022/07/20 03:49:03;;;;;;;9.07;4.80;;;24.70;62.50;;;;;;5056039;28;19909;-65
2022/07/20 03:51:29;;;;;;;;;;;24.70;62.60;;;;;;5055089;28;20025;-65
2022/07/20 03:53:55;;;;;;;7.45;4.90;;;24.60;62.90;;;;;;5056076;28;20273;-65
2022/07/20 03:56:20;;;;;;;;;;;24.60;63.20;;;;;;5056268;28;20452;-65
2022/07/20 03:58:46;;;;;;;8.60;5.85;;;24.60;63.80;;;;;;5055947;28;19995;-65
2022/07/20 04:01:12;;;;;;;;;;;24.60;63.70;;;;;;5056119;28;20036;-65
2022/07/20 04:03:37;;;;;;;9.13;5.13;;;24.60;63.90;;;;;;5055673;28;19976;-65
2022/07/20 04:06:03;;;;;;;;;;;24.60;64.10;;;;;;5054743;28;20108;-65
2022/07/20 04:08:28;;;;;;;6.68;5.20;;;24.60;64.60;;;;;;5056088;28;19936;-65
2022/07/20 04:10:54;;;;;;;;;;;24.50;65.00;;;;;;5056659;28;20032;-65
2022/07/20 04:13:20;;;;;;;10.48;5.32;;;24.50;65.40;;;;;;5056499;28;19905;-64
2022/07/20 04:15:45;;;;;;;;;;;24.50;66.40;;;;;;5056093;28;20063;-64
2022/07/20 04:18:11;;;;;;;7.38;5.65;;;24.40;67.00;;;;;;5055708;28;20387;-64
2022/07/20 04:20:36;;;;;;;;;;;24.30;67.70;;;;;;5055670;28;20082;-64
2022/07/20 04:23:02;;;;;;;9.68;5.70;;;24.20;68.10;;;;;;5055067;28;19932;-64
2022/07/20 04:25:27;;;;;;;;;;;24.20;68.90;;;;;;5055628;28;20064;-64
2022/07/20 04:27:53;;;;;;;10.30;6.22;;;24.10;69.70;;;;;;5055418;28;19947;-64
2022/07/20 04:30:19;;;;;;;;;;;24.00;70.50;;;;;;5055549;28;20461;-66
2022/07/20 04:32:44;;;;;;;9.77;6.15;;;23.90;71.40;;;;;;5053976;28;19913;-64
2022/07/20 04:35:10;;;;;;;;;;;23.80;72.60;;;;;;5056113;28;20123;-64
2022/07/20 04:37:37;;;;;;;10.63;5.57;;;23.80;73.20;;;;;;5054917;28;19973;-64
2022/07/20 04:40:04;;;;;;;11.57;5.80;;;23.70;74.00;;;;;;5054829;28;20037;-64
2022/07/20 04:42:30;;;;;;;11.27;5.25;;;23.50;74.40;;;;;;5053401;28;20035;-64
2022/07/20 04:44:56;;;;;;;;;;;23.40;75.00;;;;;;5053936;28;20075;-63
2022/07/20 04:47:21;;;;;;;7.28;5.30;;;23.30;75.80;;;;;;5054967;28;19908;-64
2022/07/20 04:49:47;;;;;;;12.50;5.47;;;23.30;75.90;;;;;;5054743;28;20029;-62
2022/07/20 04:52:13;;;;;;;;;;;23.30;76.50;;;;;;5055394;28;20024;-63
2022/07/20 04:54:39;;;;;;;9.88;5.72;;;23.30;76.40;;;;;;5054723;28;20387;-62
2022/07/20 04:57:05;;;;;;;;;;;23.30;76.90;;;;;;5055064;28;20127;-64
2022/07/20 04:59:30;;;;;;;9.52;6.20;;;23.40;77.30;;;;;;5054759;28;19905;-63
2022/07/20 05:01:56;;;;;;;;;;;23.40;77.30;;;;;;5055546;28;20470;-63
2022/07/20 05:04:22;;;;;;;9.30;5.15;;;23.50;77.10;;;;;;5054852;28;19909;-65
2022/07/20 05:06:47;;;;;;;;;;;23.50;76.60;;;;;;5055398;28;20025;-65
2022/07/20 05:09:14;;;;;;;14.75;5.95;;;23.40;76.90;;;;;;5054752;28;19905;-65
2022/07/20 05:11:40;;;;;;;13.55;5.53;;;23.50;76.70;;;;;;5054670;28;20393;-65
2022/07/20 05:14:05;;;;;;;;;;;23.50;76.60;;;;;;5055068;28;20033;-65
2022/07/20 05:16:31;;;;;;;9.68;5.13;;;23.50;76.30;;;;;;5054571;28;19962;-65
2022/07/20 05:18:56;;;;;;;;;;;23.50;76.20;;;;;;5054691;28;20064;-65
2022/07/20 05:21:22;;;;;;;9.20;5.22;;;23.60;75.00;;;;;;5054532;28;19904;-65
2022/07/20 05:23:47;;;;;;;;;;;23.60;74.50;;;;;;5053713;28;20024;-65
2022/07/20 05:26:13;;;;;;;8.00;5.13;;;23.60;73.90;;;;;;5054414;28;20021;-65
2022/07/20 05:28:39;;;;;;;;;;;23.70;73.30;;;;;;5055101;28;20017;-66
2022/07/20 05:31:05;;;;;;;12.07;5.18;;;23.80;73.20;;;;;;5054020;28;19988;-65
2022/07/20 05:33:30;;;;;;;10.35;4.82;;;23.90;72.40;;;;;;5054273;28;20110;-66
2022/07/20 05:35:56;;;;;;;;;;;23.90;72.30;;;;;;5055470;28;20371;-66
2022/07/20 05:38:21;;;;;;;10.57;5.00;;;24.00;72.40;;;;;;5054281;28;20012;-66
2022/07/20 05:40:47;;;;;;;;;;;24.10;72.40;;;;;;5054792;28;20055;-65
2022/07/20 05:43:13;;;;;;;7.03;4.65;;;24.20;71.80;;;;;;5054485;28;19956;-65
2022/07/20 05:45:38;;;;;;;;;;;24.30;72.20;;;;;;5056331;28;20044;-65
2022/07/20 05:48:06;;;;;;;8.77;5.15;;;24.50;71.80;;;;;;5054630;28;19904;-65
2022/07/20 05:50:32;;;;;;;10.88;5.13;;;24.60;71.30;;;;;;5054643;28;20027;-65
2022/07/20 05:52:57;;;;;;;12.82;5.68;;;24.50;71.40;;;;;;5054777;28;20408;-65
2022/07/20 05:55:23;;;;;;;;;;;24.50;71.70;;;;;;5054727;28;20138;-65
2022/07/20 05:57:48;;;;;;;8.70;4.53;;;24.60;71.70;;;;;;5054349;28;19905;-65
2022/07/20 06:00:14;;;;;;;;;;;24.70;71.70;;;;;;5054345;28;20069;-65
2022/07/20 06:02:40;;;;;;;9.02;4.80;;;24.70;71.60;;;;;;5053295;28;19909;-65
2022/07/20 06:05:05;;;;;;;;;;;24.70;71.60;;;;;;5053593;28;20029;-66
2022/07/20 06:07:31;;;;;;;9.98;5.30;;;24.70;71.10;;;;;;5053280;28;19990;-65
2022/07/20 06:09:56;;;;;;;;;;;24.70;70.80;;;;;;5053662;28;20425;-65
2022/07/20 06:12:22;;;;;;;12.55;5.30;;;24.80;71.00;;;;;;5053643;28;20265;-64
2022/07/20 06:14:47;;;;;;;;;;;24.80;71.00;;;;;;5053591;28;20091;-65
2022/07/20 06:17:13;;;;;;;25.10;6.32;;;24.90;71.00;;;;;;5053362;28;19908;-65
2022/07/20 06:19:38;;;;;;;;;;;24.90;71.00;;;;;;5053599;28;20478;-65
2022/07/20 06:22:04;;;;;;;10.23;4.88;;;24.90;70.80;;;;;;5052976;28;19909;-65
2022/07/20 06:24:29;;;;;;;8.25;5.15;;;25.10;70.50;;;;;;5052907;28;20035;-65
2022/07/20 06:26:55;;;;;;;;;;;25.20;70.20;;;;;;5052112;28;20489;-65
2022/07/20 06:29:20;;;;;;;7.18;4.90;;;25.20;70.30;;;;;;5053659;28;19905;-65
2022/07/20 06:31:46;;;;;;;;;;;25.40;69.90;;;;;;5052636;28;20017;-65
2022/07/20 06:34:13;;;;;;;11.20;5.10;;;25.50;69.90;;;;;;5052360;28;19916;-64
2022/07/20 06:36:38;;;;;;;12.73;5.20;;;25.50;69.80;;;;;;5055462;28;20047;-62
2022/07/20 06:39:04;;;;;;;;;;;25.60;69.70;;;;;;5054400;28;20458;-63
2022/07/20 06:41:30;;;;;;;10.90;5.05;;;25.60;69.00;;;;;;5052029;28;19904;-64
2022/07/20 06:43:55;;;;;;;;;;;25.70;69.10;;;;;;5052246;28;20097;-64
2022/07/20 06:46:21;;;;;;;12.40;4.90;;;25.70;69.00;;;;;;5052119;28;19908;-64
2022/07/20 06:48:46;;;;;;;;;;;25.80;69.10;;;;;;5053194;28;20097;-64
2022/07/20 06:51:12;;;;;;;8.13;5.10;;;25.90;68.40;;;;;;5053339;28;19911;-64
2022/07/20 06:53:37;;;;;;;;;;;25.90;68.60;;;;;;5053186;28;20493;-65
2022/07/20 06:56:03;;;;;;;7.78;4.63;;;26.00;68.30;;;;;;5052791;28;19959;-64
2022/07/20 06:58:28;;;;;;;11.85;5.97;;;26.10;68.40;;;;;;5052828;28;20390;-64
2022/07/20 07:00:54;;;;;;;10.80;4.97;;;26.20;68.40;;;;;;5052714;28;20033;-65
2022/07/20 07:03:20;;;;;;;8.48;4.65;;;26.20;68.20;;;;;;5052660;28;20104;-66
2022/07/20 07:05:45;;;;;;;9.32;4.65;;;26.30;67.40;;;;;;5052850;28;20029;-64
2022/07/20 07:08:11;;;;;;;7.80;4.70;;;26.50;67.40;;;;;;5052777;28;20029;-64
2022/07/20 07:10:36;;;;;;;7.47;4.85;;;26.60;67.50;;;;;;5052565;28;20381;-64
2022/07/20 07:13:02;;;;;;;13.77;4.47;;;26.70;67.30;;;;;;5052430;28;20052;-65
2022/07/20 07:15:27;;;;;;;10.38;5.25;;;26.80;66.90;;;;;;5052605;28;20033;-64
2022/07/20 07:17:53;;;;;;;13.35;5.95;;;26.90;66.20;;;;;;5052610;28;20029;-65
2022/07/20 07:20:18;;;;;;;9.77;4.80;;;27.00;65.90;;;;;;5052528;28;20543;-65
2022/07/20 07:22:44;;;;;;;7.45;5.40;;;27.20;65.90;;;;;;5052336;28;20029;-65
2022/07/20 07:25:10;;;;;;;11.40;5.38;;;27.20;65.80;;;;;;5052422;28;20021;-65
2022/07/20 07:27:35;;;;;;;9.40;5.28;;;27.30;65.60;;;;;;5051096;28;20029;-65
2022/07/20 07:30:01;;;;;;;7.53;4.97;;;27.40;65.60;;;;;;5051102;28;20028;-65
2022/07/20 07:32:26;;;;;;;11.68;5.47;;;27.50;65.80;;;;;;5052306;28;20120;-64
2022/07/20 07:34:52;;;;;;;8.20;4.57;;;27.60;65.70;;;;;;5053000;28;20486;-59
2022/07/20 07:37:17;;;;;;;5.18;4.50;;;27.60;65.60;;;;;;5052309;28;20029;-60
2022/07/20 07:39:43;;;;;;;7.70;4.72;;;27.80;65.50;;;;;;5053006;28;20040;-59
2022/07/20 07:42:08;;;;;;;5.75;4.63;;;27.80;65.70;;;;;;5053124;28;20488;-60
2022/07/20 07:44:34;;;;;;;9.82;4.80;;;27.90;65.30;;;;;;5053565;28;20111;-58
2022/07/20 07:47:00;;;;;;;8.18;5.32;;;28.00;65.20;;;;;;5054840;28;20031;-59
2022/07/20 07:49:25;;;;;;;11.68;5.07;;;28.10;65.30;;;;;;5056319;28;20047;-59
2022/07/20 07:51:51;;;;;;;9.82;5.50;;;28.20;65.50;;;;;;5056172;28;20032;-60
2022/07/20 07:54:17;;;;;;;11.13;5.43;;;28.30;65.30;;;;;;5055998;28;20036;-57
2022/07/20 07:56:42;;;;;;;10.70;5.05;;;28.30;65.20;;;;;;5055880;28;20025;-56
2022/07/20 07:59:08;;;;;;;8.82;4.90;;;28.40;65.20;;;;;;5056542;28;20028;-59
2022/07/20 08:01:36;;;;;;;8.35;4.90;;;28.60;64.90;;;;;;5054599;28;20032;-58
2022/07/20 08:04:03;;;;;;;8.30;5.47;;;28.70;64.30;;;;;;5056307;28;20039;-58
2022/07/20 08:06:29;;;;;;;13.13;5.47;;;28.90;63.70;;;;;;5056373;28;20412;-59
2022/07/20 08:08:54;;;;;;;7.50;4.80;;;29.10;63.20;;;;;;5055719;28;20055;-60
2022/07/20 08:11:20;;;;;;;13.30;4.93;;;29.30;62.30;;;;;;5058317;28;20074;-60
2022/07/20 08:13:45;;;;;;;6.50;4.50;;;29.50;61.90;;;;;;5059075;28;20397;-60
2022/07/20 08:16:11;;;;;;;5.50;4.10;;;29.80;61.30;;;;;;5058336;28;20032;-59
2022/07/20 08:18:37;;;;;;;10.07;4.78;;;30.70;60.10;;;;;;5058764;28;20539;-60
2022/07/20 08:21:02;;;;;;;7.43;4.05;;;32.60;57.80;;;;;;5056063;28;20029;-61
2022/07/20 08:23:28;;;;;;;9.02;4.93;;;34.80;54.80;;;;;;5055984;28;20393;-60
2022/07/20 08:25:53;;;;;;;7.90;4.82;;;36.30;53.10;;;;;;5056758;28;20017;-59
2022/07/20 08:28:21;;;;;;;11.77;5.22;;;37.80;52.10;;;;;;5057372;28;20103;-59
2022/07/20 08:30:49;;;;;;;11.50;5.47;;;39.00;50.40;;;;;;5056585;28;20031;-61
2022/07/20 08:33:14;;;;;;;10.82;5.60;;;39.80;49.60;;;;;;5056262;28;20043;-60
2022/07/20 08:35:41;;;;;;;11.45;5.75;;;40.50;49.20;;;;;;5055870;28;20100;-62
2022/07/20 08:38:08;;;;;;;9.02;6.50;;;40.60;48.90;;;;;;5055534;28;20430;-60
2022/07/20 08:40:34;;;;;;;9.82;6.53;;;40.60;48.80;;;;;;5055352;28;20044;-60
2022/07/20 08:43:00;;;;;;;14.30;6.65;;;41.20;48.90;;;;;;5055170;28;20036;-60
2022/07/20 08:45:27;;;;;;;8.88;6.28;;;41.40;48.60;;;;;;5054278;28;20025;-61
2022/07/20 08:47:52;;;;;;;11.70;7.72;;;41.80;48.50;;;;;;5055762;28;20013;-61
2022/07/20 08:50:23;;;;;;;16.45;8.10;;;41.70;48.80;;;;;;5055768;28;20518;-60
2022/07/20 08:52:50;;;;;;;9.70;8.00;;;40.90;49.30;;;;;;5055670;28;20036;-62
2022/07/20 08:55:15;;;;;;;14.75;9.00;;;40.60;50.20;;;;;;5055469;28;20104;-60
2022/07/20 08:57:42;;;;;;;12.75;10.10;;;41.00;50.10;;;;;;5054090;28;20064;-61
2022/07/20 09:00:08;;;;;;;11.70;9.40;;;41.70;49.80;;;;;;5055553;28;20025;-60
2022/07/20 09:03:03;;;;;;;12.73;8.80;;;42.40;49.40;;;;;;5054763;28;20083;-62
2022/07/20 09:05:34;;;;;;;15.50;11.77;;;42.40;49.70;;;;;;5054719;28;20025;-61
2022/07/20 09:08:01;;;;;;;16.80;10.75;;;42.30;49.40;;;;;;5054873;28;20074;-61
2022/07/20 09:10:28;;;;;;;14.90;11.40;;;42.20;49.40;;;;;;5054488;28;20025;-60
2022/07/20 09:13:14;;;;;;;16.63;11.10;;;42.30;49.70;;;;;;5054349;28;20021;-62
2022/07/20 09:15:45;;;;;;;14.27;11.55;;;41.70;49.80;;;;;;5054313;28;20021;-61
2022/07/20 09:18:20;;;;;;;15.45;12.05;;;41.80;49.80;;;;;;5054562;28;20032;-61
2022/07/20 09:20:51;;;;;;;14.90;11.02;;;42.10;49.70;;;;;;5054679;28;20045;-62
2022/07/20 09:23:19;;;;;;;14.73;12.05;;;42.00;49.70;;;;;;5054220;28;20078;-61
2022/07/20 09:25:52;;;;;;;14.27;11.52;;;42.00;49.70;;;;;;5054683;28;20021;-60
2022/07/20 09:28:18;;;;;;;16.55;12.48;;;41.80;49.90;;;;;;5053148;28;20023;-59
2022/07/20 09:30:55;;;;;;;13.40;12.00;;;41.70;49.60;;;;;;5054369;28;20095;-59
2022/07/20 09:33:26;;;;;;;16.65;12.60;;;42.00;49.90;;;;;;5052837;28;20069;-62
2022/07/20 09:35:52;;;;;;;18.17;12.05;;;41.90;49.80;;;;;;5054241;28;20033;-61
2022/07/20 09:38:18;;;;;;;14.80;11.93;;;42.10;50.00;;;;;;5054226;28;20021;-61
2022/07/20 09:40:45;;;;;;;15.10;11.93;;;42.50;49.50;;;;;;5054069;28;20540;-58
2022/07/20 09:43:28;;;;;;;16.35;12.00;;;43.10;49.20;;;;;;5053863;28;20108;-60
2022/07/20 09:45:55;;;;;;;15.00;10.68;;;43.30;48.80;;;;;;5052448;28;20490;-61
2022/07/20 09:48:24;;;;;;;15.05;9.82;;;43.80;48.60;;;;;;5052597;28;20063;-61
2022/07/20 09:50:50;;;;;;;12.95;10.73;;;43.70;48.60;;;;;;5053616;28;20436;-61
2022/07/20 09:53:16;;;;;;;16.33;11.05;;;43.90;48.70;;;;;;5053873;28;20036;-61
2022/07/20 09:55:42;;;;;;;15.52;11.30;;;43.80;48.70;;;;;;5053686;28;20078;-60
2022/07/20 09:58:09;;;;;;;12.77;11.48;;;43.80;48.50;;;;;;5052338;28;20119;-61
2022/07/20 10:00:35;;;;;;;15.57;11.38;;;44.00;48.60;;;;;;5053327;28;20033;-60
2022/07/20 10:03:03;;;;;;;13.45;10.80;;;44.40;48.30;;;;;;5053141;28;20471;-61
2022/07/20 10:05:32;;;;;;;13.48;11.07;;;44.90;47.90;;;;;;5053142;28;20025;-62
2022/07/20 10:08:03;;;;;;;14.18;11.43;;;44.60;47.90;;;;;;5053054;28;20417;-60
2022/07/20 10:10:29;;;;;;;13.77;10.38;;;44.10;48.20;;;;;;5053022;28;20017;-62
2022/07/20 10:12:55;;;;;;;18.98;10.68;;;44.10;48.80;;;;;;5053279;28;20025;-60
2022/07/20 10:15:27;;;;;;;19.73;11.10;;;44.40;48.40;;;;;;5052867;28;20031;-60
2022/07/20 10:17:53;;;;;;;16.48;11.50;;;44.10;48.20;;;;;;5052839;28;20079;-61
2022/07/20 10:20:36;;;;;;;11.80;10.60;;;43.60;49.20;;;;;;5052668;28;20025;-59
2022/07/20 10:23:14;;;;;;;13.32;11.43;;;43.50;49.20;;;;;;5051308;28;20059;-60
2022/07/20 10:25:41;;;;;;;13.80;11.48;;;44.00;49.80;;;;;;5052957;28;20052;-61
2022/07/20 10:28:26;;;;;;;13.52;10.93;;;44.30;48.70;;;;;;5052954;28;20029;-61
2022/07/20 10:31:08;;;;;;;17.98;11.40;;;44.60;48.40;;;;;;5053340;28;20354;-61
2022/07/20 10:33:36;;;;;;;14.15;12.10;;;44.20;48.90;;;;;;5052845;28;20060;-61
2022/07/20 10:39:39;;;;;;;13.65;11.40;;;44.50;48.70;;;;;;5053242;28;20032;-61
2022/07/20 10:42:21;;;;;;;18.10;12.25;;;43.30;49.20;;;;;;5052841;28;20022;-61
2022/07/20 10:44:47;;;;;;;18.50;12.15;;;42.40;50.20;;;;;;5052686;28;20378;-61
2022/07/20 10:47:45;;;;;;;14.90;11.27;;;41.40;51.00;;;;;;5052634;28;20466;-60
2022/07/20 10:50:18;;;;;;;15.93;11.77;;;41.30;51.50;;;;;;5053092;28;20104;-60
2022/07/20 10:52:47;;;;;;;15.25;12.27;;;42.40;51.00;;;;;;5053009;28;20021;-61
2022/07/20 10:55:35;;;;;;;18.27;12.35;;;42.40;50.70;;;;;;5052503;28;20025;-62
2022/07/20 10:58:03;;;;;;;18.92;11.88;;;41.80;51.10;;;;;;5051307;28;20021;-59
2022/07/20 11:00:34;;;;;;;15.90;11.98;;;42.00;51.00;;;;;;5051179;28;20021;-61
2022/07/20 11:03:00;;;;;;;16.85;11.27;;;42.10;51.00;;;;;;5052546;28;20060;-61
2022/07/20 11:05:26;;;;;;;18.20;11.88;;;41.60;51.10;;;;;;5052501;28;20059;-61
2022/07/20 11:07:51;;;;;;;18.70;11.70;;;40.70;51.60;;;;;;5052197;28;20032;-59
2022/07/20 11:10:24;;;;;;;20.20;12.05;;;40.30;52.30;;;;;;5052769;28;20024;-61
2022/07/20 11:12:59;;;;;;;14.65;11.25;;;39.70;53.10;;;;;;5052292;28;20021;-61
2022/07/20 11:15:45;;;;;;;16.05;11.15;;;39.20;53.30;;;;;;5052553;28;20028;-62
2022/07/20 11:18:16;;;;;;;12.95;10.60;;;38.60;53.50;;;;;;5052380;28;20028;-61
2022/07/20 11:20:49;;;;;;;13.52;11.02;;;37.50;54.50;;;;;;5051195;28;20397;-60
2022/07/20 11:23:16;;;;;;;11.75;10.63;;;37.00;55.50;;;;;;5056077;28;20033;-60
2022/07/20 11:25:54;;;;;;;12.73;11.27;;;36.60;56.40;;;;;;5056507;28;20492;-59
2022/07/20 11:28:23;;;;;;;17.85;11.95;;;36.50;56.80;;;;;;5056467;28;20462;-60
2022/07/20 11:30:50;;;;;;;19.25;11.40;;;36.40;56.50;;;;;;5054831;28;20017;-60
2022/07/20 11:33:42;;;;;;;13.48;11.35;;;36.40;56.70;;;;;;5055884;28;20110;-59
2022/07/20 11:36:14;;;;;;;16.83;12.73;;;36.30;57.00;;;;;;5054765;28;20126;-60
2022/07/20 11:38:44;;;;;;;15.98;11.93;;;36.30;57.10;;;;;;5056369;28;20057;-59
2022/07/20 11:41:12;;;;;;;17.50;11.95;;;36.00;57.70;;;;;;5056090;28;20025;-60
2022/07/20 11:43:38;;;;;;;16.70;11.30;;;35.90;57.60;;;;;;5056075;28;20017;-60
2022/07/20 11:46:17;;;;;;;19.17;11.77;;;35.90;57.70;;;;;;5055964;28;20028;-59
2022/07/20 11:48:52;;;;;;;17.20;11.30;;;35.80;57.60;;;;;;5056304;28;20485;-59
2022/07/20 11:51:18;;;;;;;16.17;12.40;;;35.80;57.70;;;;;;5056014;28;20484;-59
2022/07/20 11:53:44;;;;;;;14.27;10.75;;;35.60;57.40;;;;;;5056043;28;20033;-60
2022/07/20 11:56:15;;;;;;;17.20;11.35;;;35.30;57.70;;;;;;5058078;28;20507;-60
2022/07/20 11:58:42;;;;;;;17.25;10.30;;;35.20;57.60;;;;;;5058959;28;20457;-61
2022/07/20 12:01:13;;;;;;;13.65;10.88;;;35.20;57.30;;;;;;5058425;28;20112;-60
2022/07/20 12:03:42;;;;;;;16.65;10.73;;;35.30;57.30;;;;;;5057491;28;20032;-59
2022/07/20 12:06:13;;;;;;;13.43;10.10;;;35.30;57.10;;;;;;5057695;28;20545;-60
2022/07/20 12:08:39;;;;;;;16.17;10.30;;;35.40;56.70;;;;;;5058473;28;20021;-59
2022/07/20 12:11:07;;;;;;;13.18;10.80;;;35.40;56.80;;;;;;5057359;28;20021;-61
2022/07/20 12:13:48;;;;;;;14.25;10.93;;;35.30;56.90;;;;;;5058031;28;20033;-60
2022/07/20 12:16:15;;;;;;;16.88;10.30;;;35.30;56.70;;;;;;5057512;28;20040;-59
2022/07/20 12:18:47;;;;;;;15.90;9.50;;;35.20;56.40;;;;;;5055678;28;20028;-60
2022/07/20 12:21:16;;;;;;;15.98;9.98;;;35.20;56.60;;;;;;5054132;28;20056;-60
2022/07/20 12:23:44;;;;;;;16.95;10.23;;;35.40;56.40;;;;;;5054976;28;20029;-61
2022/07/20 12:26:30;;;;;;;14.65;10.45;;;35.50;56.30;;;;;;5055089;28;20099;-59
2022/07/20 12:29:16;;;;;;;13.43;10.02;;;35.40;56.60;;;;;;5054296;28;20037;-62
2022/07/20 12:31:42;;;;;;;15.45;10.40;;;35.10;56.80;;;;;;5052862;28;20474;-59
2022/07/20 12:34:11;;;;;;;15.52;10.75;;;35.00;56.70;;;;;;5053357;28;20411;-59
2022/07/20 12:36:39;;;;;;;13.13;11.05;;;34.80;57.30;;;;;;5055178;28;20101;-59
2022/07/20 12:39:10;;;;;;;14.02;9.85;;;34.70;57.60;;;;;;5055035;28;20100;-60
2022/07/20 12:41:37;;;;;;;16.77;10.38;;;34.60;57.60;;;;;;5055368;28;20087;-60
2022/07/20 12:44:24;;;;;;;13.63;10.02;;;34.70;57.80;;;;;;5054626;28;20500;-59
2022/07/20 12:46:51;;;;;;;13.75;9.73;;;34.80;57.20;;;;;;5054449;28;20474;-61
2022/07/20 12:49:22;;;;;;;12.45;10.05;;;34.80;57.10;;;;;;5053238;28;20079;-60
2022/07/20 12:51:49;;;;;;;15.65;10.30;;;34.80;57.40;;;;;;5054943;28;20096;-61
2022/07/20 12:54:15;;;;;;;14.45;10.48;;;34.80;57.50;;;;;;5054564;28;20044;-62
2022/07/20 12:56:41;;;;;;;18.17;10.93;;;34.80;57.60;;;;;;5054560;28;20025;-60
2022/07/20 12:59:06;;;;;;;12.98;11.13;;;34.70;57.80;;;;;;5054515;28;20108;-57